Time;durP1;ratioP1;P1;durP2;ratioP2;P2;SDS_P1;SDS_P2;PMS_P1;PMS_P2;Temp;Humidity;BMP_temperature;BMP_pressure;BME280_temperature;BME280_humidity;BME280_pressure;Samples;Min_cycle;Max_cycle;Signal;HPM_P1;HPM_P2
2021/08/30 00:01:00;;;;;;;31.85;10.50;;;;;;;20.12;55.67;99118.81;5020371;28;20045;-79
2021/08/30 00:03:35;;;;;;;28.40;10.73;;;;;;;19.88;55.84;99086.47;5043349;28;20045;-79
2021/08/30 00:06:22;;;;;;;30.63;11.07;;;;;;;20.07;56.10;99121.88;5024279;28;20191;-80
2021/08/30 00:08:55;;;;;;;29.38;10.57;;;;;;;19.96;56.27;99112.44;5018366;28;20180;-77
2021/08/30 00:11:23;;;;;;;31.30;10.70;;;;;;;20.01;56.38;99126.06;5008569;28;20239;-77
2021/08/30 00:13:55;;;;;;;35.35;11.40;;;;;;;19.80;56.52;99104.06;5001780;28;20053;-78
2021/08/30 00:16:36;;;;;;;28.98;11.45;;;;;;;19.72;56.97;99089.19;5019338;28;20421;-77
2021/08/30 00:19:08;;;;;;;;;;;;;;;20.10;56.96;99148.09;5001071;28;20434;-79
2021/08/30 00:21:41;;;;;;;32.30;11.23;;;;;;;19.81;57.29;99109.25;5017240;28;19925;-78
2021/08/30 00:24:15;;;;;;;29.65;11.82;;;;;;;19.56;57.03;99083.59;5012199;28;20513;-80
2021/08/30 00:26:44;;;;;;;36.38;11.07;;;;;;;19.59;57.18;99091.22;5011300;28;20669;-75
2021/08/30 00:29:35;;;;;;;46.05;11.55;;;;;;;19.71;57.42;99118.06;5012514;28;20045;-75
2021/08/30 00:32:08;;;;;;;30.35;11.23;;;;;;;19.52;57.46;99091.03;4995635;28;20390;-76
2021/08/30 00:34:36;;;;;;;31.02;11.15;;;;;;;19.58;57.27;99088.78;5010030;28;20049;-76
2021/08/30 00:37:20;;;;;;;36.00;11.60;;;;;;;19.72;57.33;99116.13;5004487;28;20132;-76
2021/08/30 00:39:55;;;;;;;25.83;10.32;;;;;;;19.94;57.43;99157.19;5006431;28;20049;-75
2021/08/30 00:42:32;;;;;;;31.38;11.13;;;;;;;19.50;57.22;99085.81;5038242;28;20085;-75
2021/08/30 00:45:04;;;;;;;28.27;11.30;;;;;;;19.75;57.22;99126.50;5010114;28;20524;-75
2021/08/30 00:47:36;;;;;;;30.58;11.00;;;;;;;19.68;56.98;99113.25;5021010;28;20045;-76
2021/08/30 00:50:06;;;;;;;28.88;11.48;;;;;;;19.69;57.00;99120.41;5023503;28;20148;-75
2021/08/30 00:52:37;;;;;;;24.00;11.50;;;;;;;19.79;56.68;99131.00;5005170;28;20053;-75
2021/08/30 00:55:11;;;;;;;25.48;10.85;;;;;;;19.55;56.62;99090.31;5021441;28;20049;-76
2021/08/30 00:57:39;;;;;;;22.83;10.82;;;;;;;19.51;56.83;99079.13;5003714;28;20050;-77
2021/08/30 01:00:12;;;;;;;25.75;10.40;;;;;;;19.85;56.76;99128.78;5011829;28;20107;-76
2021/08/30 01:02:42;;;;;;;32.50;11.20;;;;;;;19.35;57.11;99062.41;4989386;28;20099;-76
2021/08/30 01:05:12;;;;;;;31.85;11.68;;;;;;;19.66;57.20;99101.69;5010625;28;20053;-76
2021/08/30 01:07:48;;;;;;;32.60;11.23;;;;;;;19.59;57.41;99105.06;5009879;28;20099;-76
2021/08/30 01:10:27;;;;;;;24.88;10.80;;;;;;;19.35;57.46;99061.63;5011788;28;20056;-76
2021/08/30 01:13:07;;;;;;;34.15;11.18;;;;;;;19.33;57.69;99073.06;5005917;28;20517;-77
2021/08/30 01:15:45;;;;;;;29.00;11.25;;;;;;;19.60;57.44;99126.09;4995177;28;20077;-76
2021/08/30 01:18:21;;;;;;;31.83;11.45;;;;;;;19.54;57.79;99105.34;5010819;28;20149;-76
2021/08/30 01:21:14;;;;;;;27.95;11.88;;;;;;;19.54;57.64;99102.56;4995344;28;20060;-76
2021/08/30 01:23:46;;;;;;;27.67;12.40;;;;;;;19.54;57.28;99099.78;5027748;28;20414;-76
2021/08/30 01:26:27;;;;;;;25.92;11.60;;;;;;;19.56;57.69;99108.56;5010784;28;20054;-76
2021/08/30 01:29:06;;;;;;;31.00;11.18;;;;;;;19.66;57.92;99127.44;4995440;28;20049;-76
2021/08/30 01:31:54;;;;;;;31.00;10.68;;;;;;;19.33;57.80;99070.28;5021525;28;20469;-76
2021/08/30 01:34:35;;;;;;;26.33;11.20;;;;;;;19.44;57.47;99089.19;5011006;28;20044;-76
2021/08/30 01:37:12;;;;;;;30.55;11.57;;;;;;;19.25;57.39;99055.41;5008791;28;20057;-75
2021/08/30 01:39:49;;;;;;;34.88;11.02;;;;;;;19.38;57.54;99077.53;5019654;28;20528;-76
2021/08/30 01:42:23;;;;;;;25.42;10.85;;;;;;;19.46;57.95;99093.25;5010708;28;20049;-75
2021/08/30 01:44:52;;;;;;;25.02;11.50;;;;;;;19.27;57.82;99066.94;5021040;28;20060;-76
2021/08/30 01:47:20;;;;;;;27.70;11.05;;;;;;;19.44;57.84;99106.66;5021585;28;20410;-76
2021/08/30 01:50:02;;;;;;;30.85;11.48;;;;;;;19.20;57.53;99068.69;4988162;28;20053;-76
2021/08/30 01:52:32;;;;;;;28.65;10.63;;;;;;;19.38;57.59;99096.94;5003517;28;20324;-76
2021/08/30 01:55:16;;;;;;;25.70;11.15;;;;;;;19.33;57.42;99095.22;5010331;28;20053;-76
2021/08/30 02:00:42;;;;;;;33.00;12.70;;;;;;;19.38;57.64;99108.84;4985787;28;20046;-75
2021/08/30 02:00:52;;;;;;;33.28;12.90;;;;;;;19.28;57.56;99087.16;5011193;28;20050;-78
2021/08/30 02:03:37;;;;;;;31.23;12.25;;;;;;;19.22;57.83;99080.28;5011517;28;20140;-76
2021/08/30 02:06:21;;;;;;;39.40;13.00;;;;;;;19.07;58.02;99066.00;4993324;28;20054;-77
2021/08/30 02:08:54;;;;;;;32.40;13.00;;;;;;;19.37;57.83;99103.66;5010578;28;20050;-77
2021/08/30 02:11:38;;;;;;;29.60;12.10;;;;;;;19.30;57.77;99092.38;5010818;28;20048;-76
2021/08/30 02:14:11;;;;;;;27.02;12.48;;;;;;;19.30;57.57;99098.69;4987849;28;20060;-77
2021/08/30 02:16:41;;;;;;;31.55;12.18;;;;;;;19.40;57.57;99097.41;5009390;28;20068;-76
2021/08/30 02:19:24;;;;;;;30.88;11.55;;;;;;;19.22;57.48;99074.72;5018947;28;20042;-76
2021/08/30 02:22:04;;;;;;;37.30;12.88;;;;;;;19.36;57.58;99102.84;5004093;28;20057;-76
2021/08/30 02:24:38;;;;;;;40.85;15.27;;;;;;;19.45;57.45;99160.91;5043169;28;20598;-77
2021/08/30 02:27:12;;;;;;;60.63;20.92;;;;;;;19.45;57.59;99174.78;4986641;28;20049;-77
2021/08/30 02:29:48;;;;;;;38.08;14.65;;;;;;;19.07;58.10;99139.97;5003692;28;20049;-77
2021/08/30 02:32:23;;;;;;;38.05;13.85;;;;;;;18.99;58.57;99156.38;4993597;28;20045;-78
2021/08/30 02:35:00;;;;;;;41.30;13.80;;;;;;;19.07;58.78;99174.03;4988754;28;20034;-77
2021/08/30 02:37:38;;;;;;;50.88;15.73;;;;;;;18.93;58.86;99190.94;5026651;28;20041;-78
2021/08/30 02:40:06;;;;;;;;;;;;;;;18.90;59.46;99199.97;5002075;28;20057;-78
2021/08/30 02:42:36;;;;;;;29.50;11.50;;;;;;;18.56;59.27;99152.97;5017990;28;20395;-78
2021/08/30 02:45:05;;;;;;;35.42;12.38;;;;;;;18.63;59.47;99159.91;5009189;28;20049;-78
2021/08/30 02:47:36;;;;;;;42.72;11.63;;;;;;;18.72;59.42;99188.28;5036094;28;20041;-78
2021/08/30 02:50:08;;;;;;;33.95;11.23;;;;;;;18.40;59.76;99139.00;5002410;28;20061;-78
2021/08/30 02:52:41;;;;;;;35.10;11.55;;;;;;;18.66;59.60;99159.22;5009833;28;20575;-78
2021/08/30 02:55:10;;;;;;;35.38;11.60;;;;;;;18.47;59.46;99121.84;5010929;28;20060;-76
2021/08/30 02:57:42;;;;;;;35.53;12.18;;;;;;;18.77;59.38;99152.09;5037488;28;20042;-76
2021/08/30 03:00:11;;;;;;;29.85;11.43;;;;;;;18.97;59.27;99175.28;5018954;28;20049;-78
2021/08/30 03:02:43;;;;;;;36.80;10.98;;;;;;;18.88;58.97;99148.81;5001889;28;20045;-77
2021/08/30 03:05:16;;;;;;;30.30;10.38;;;;;;;19.02;58.84;99152.09;5019974;28;20111;-76
2021/08/30 03:07:54;;;;;;;36.60;11.90;;;;;;;19.23;58.82;99176.88;5025958;28;20053;-77
2021/08/30 03:10:37;;;;;;;35.60;11.18;;;;;;;18.94;59.45;99128.06;5002193;28;20587;-77
2021/08/30 03:13:12;;;;;;;27.77;11.00;;;;;;;19.09;59.81;99144.00;5004749;28;20107;-76
2021/08/30 03:15:43;;;;;;;30.83;11.90;;;;;;;19.03;60.06;99122.44;5020555;28;20046;-77
2021/08/30 03:18:13;;;;;;;34.10;11.35;;;;;;;19.35;59.91;99161.41;5018924;28;20049;-78
2021/08/30 03:20:46;;;;;;;36.30;10.85;;;;;;;19.27;60.61;99138.19;5010467;28;20057;-77
2021/08/30 03:23:21;;;;;;;26.42;10.90;;;;;;;19.15;60.95;99121.59;5018629;28;20143;-76
2021/08/30 03:25:50;;;;;;;27.27;10.75;;;;;;;19.35;61.85;99134.47;5009120;28;20487;-78
2021/08/30 03:28:32;;;;;;;28.67;10.07;;;;;;;19.30;61.55;99120.88;5010536;28;20073;-77
2021/08/30 03:31:06;;;;;;;28.23;10.35;;;;;;;19.49;61.75;99141.59;5004576;28;20046;-76
2021/08/30 03:33:38;;;;;;;25.63;10.30;;;;;;;19.35;61.96;99098.44;4993245;28;20564;-76
2021/08/30 03:36:07;;;;;;;23.90;10.88;;;;;;;19.38;61.77;99096.94;5009385;28;20042;-77
2021/08/30 03:38:37;;;;;;;26.88;12.38;;;;;;;19.62;61.82;99125.75;5009419;28;20111;-77
2021/08/30 03:41:07;;;;;;;23.95;11.18;;;;;;;19.94;62.33;99167.47;5009430;28;20050;-77
2021/08/30 03:43:41;;;;;;;28.77;12.90;;;;;;;19.77;62.33;99116.69;5007612;28;20115;-77
2021/08/30 03:46:09;;;;;;;25.45;11.80;;;;;;;19.85;62.57;99137.09;5035651;28;20070;-77
2021/08/30 03:48:37;;;;;;;25.33;12.20;;;;;;;19.86;63.17;99124.03;5001254;28;20049;-77
2021/08/30 03:51:05;;;;;;;23.05;11.15;;;;;;;19.81;63.55;99125.06;5018438;28;20533;-76
2021/08/30 03:53:35;;;;;;;20.33;10.63;;;;;;;19.73;63.62;99109.41;5020624;28;20045;-77
2021/08/30 03:56:12;;;;;;;21.27;10.75;;;;;;;19.69;64.18;99099.03;5025170;28;20095;-77
2021/08/30 03:58:57;;;;;;;29.05;10.95;;;;;;;19.80;63.92;99106.81;5007249;28;20046;-77
2021/08/30 04:01:31;;;;;;;18.07;9.93;;;;;;;19.84;64.01;99103.00;4993864;28;20108;-77
2021/08/30 04:04:02;;;;;;;22.85;9.77;;;;;;;19.79;64.08;99088.56;5029676;28;20311;-77
2021/08/30 04:06:34;;;;;;;21.60;9.98;;;;;;;19.67;64.16;99073.63;5014946;28;20054;-77
2021/08/30 04:09:13;;;;;;;23.08;10.75;;;;;;;19.87;64.09;99095.13;5006451;28;20046;-77
2021/08/30 04:11:46;;;;;;;19.20;9.75;;;;;;;19.82;64.44;99082.31;5007002;28;20049;-76
2021/08/30 04:14:16;;;;;;;24.50;10.32;;;;;;;19.75;64.37;99071.03;5030254;28;20065;-77
2021/08/30 04:16:46;;;;;;;20.48;9.48;;;;;;;19.71;64.55;99073.72;5019897;28;20057;-76
2021/08/30 04:19:24;;;;;;;17.95;9.95;;;;;;;20.06;64.62;99127.75;4998154;28;20095;-78
2021/08/30 04:21:59;;;;;;;20.25;10.15;;;;;;;19.80;64.66;99096.56;4989064;28;20050;-78
2021/08/30 04:24:30;;;;;;;21.38;10.15;;;;;;;19.83;64.75;99087.50;5022662;28;20525;-78
2021/08/30 04:26:59;;;;;;;25.27;10.68;;;;;;;19.84;64.92;99096.66;5013008;28;20041;-79
2021/08/30 04:29:31;;;;;;;22.13;11.65;;;;;;;19.91;65.10;99107.94;5030060;28;20064;-79
2021/08/30 04:32:00;;;;;;;20.77;12.20;;;;;;;19.96;65.04;99118.00;5040965;28;20084;-78
2021/08/30 04:34:37;;;;;;;22.23;12.25;;;;;;;20.11;65.35;99147.75;5041322;28;20108;-76
2021/08/30 04:37:21;;;;;;;27.85;12.88;;;;;;;20.04;64.89;99147.53;5009731;28;20121;-76
2021/08/30 04:40:03;;;;;;;28.98;12.40;;;;;;;19.93;64.85;99140.91;5041243;28;20111;-76
2021/08/30 04:42:54;;;;;;;28.77;13.63;;;;;;;20.21;65.01;99207.47;4989212;28;20089;-76
2021/08/30 04:45:30;;;;;;;32.47;15.73;;;;;;;20.12;65.35;99188.19;4969846;28;20042;-77
2021/08/30 04:48:02;;;;;;;38.53;14.77;;;;;;;19.68;65.81;99139.00;4969310;28;20073;-78
2021/08/30 04:50:33;;;;;;;34.17;13.85;;;;;;;19.90;65.97;99184.00;4975664;28;20446;-76
2021/08/30 04:53:24;;;;;;;33.00;13.50;;;;;;;19.95;66.34;99169.88;4952161;28;20050;-76
2021/08/30 04:55:55;;;;;;;34.78;14.05;;;;;;;19.72;66.46;99138.31;4981307;28;20181;-75
2021/08/30 04:58:32;;;;;;;33.40;14.45;;;;;;;19.95;66.01;99175.44;4966300;28;20061;-76
2021/08/30 05:01:06;;;;;;;34.17;15.27;;;;;;;19.80;65.94;99156.75;4967577;28;20045;-77
2021/08/30 05:03:34;;;;;;;36.20;16.15;;;;;;;19.55;65.62;99131.91;4972657;28;20133;-77
2021/08/30 05:06:00;;;;;;;;;;;;;;;19.95;65.27;99210.69;4985212;28;20045;-76
2021/08/30 05:08:27;;;;;;;30.65;14.75;;;;;;;19.58;65.53;99163.63;5037231;28;19952;-76
2021/08/30 05:10:57;;;;;;;41.60;15.05;;;;;;;19.41;65.18;99135.03;5021339;28;20136;-76
2021/08/30 05:13:38;;;;;;;34.42;15.32;;;;;;;19.41;65.12;99110.91;5020293;28;20668;-76
2021/08/30 05:16:19;;;;;;;35.53;14.68;;;;;;;19.48;64.86;99085.38;4991090;28;20053;-76
2021/08/30 05:18:58;;;;;;;38.22;14.77;;;;;;;19.57;64.63;99093.53;4998035;28;20042;-78
2021/08/30 05:25:15;;;;;;;40.28;16.08;;;;;;;19.67;64.55;99145.72;4976211;28;20085;-79
2021/08/30 05:27:48;;;;;;;31.50;15.50;;;;;;;19.68;64.62;99146.50;4928514;28;20547;-77
2021/08/30 05:31:02;;;;;;;31.42;14.73;;;;;;;19.45;64.68;99099.13;4949535;28;20047;-78
2021/08/30 05:34:00;;;;;;;;;;;;;;;;;;;;;
2021/08/30 05:37:37;;;;;;;34.53;15.38;;;;;;;19.35;64.30;99087.38;4930157;28;20055;-78
2021/08/30 05:41:33;;;;;;;45.33;15.50;;;;;;;19.30;64.52;99097.91;4924503;28;20051;-78
2021/08/30 05:44:41;;;;;;;30.05;13.82;;;;;;;19.38;64.44;99114.41;4940000;28;20579;-78
2021/08/30 05:48:44;;;;;;;34.80;14.48;;;;;;;19.24;64.31;99103.69;4951718;28;20097;-78
2021/08/30 05:51:37;;;;;;;36.67;14.18;;;;;;;19.18;64.32;99110.63;4935463;28;20050;-78
2021/08/30 05:54:42;;;;;;;37.47;14.50;;;;;;;19.56;64.38;99184.19;4931011;28;20137;-78
2021/08/30 05:57:59;;;;;;;34.33;14.40;;;;;;;19.10;64.89;99133.72;4952776;28;20514;-77
2021/08/30 06:01:08;;;;;;;36.47;14.50;;;;;;;19.18;65.23;99151.38;4931522;28;20149;-78
2021/08/30 06:04:10;;;;;;;29.13;14.10;;;;;;;19.31;65.11;99174.34;4932687;28;20150;-77
2021/08/30 06:07:01;;;;;;;37.10;13.77;;;;;;;19.11;65.10;99152.78;4958109;28;20538;-78
2021/08/30 06:13:24;;;;;;;37.53;14.10;;;;;;;19.07;65.50;99159.34;4961808;28;20046;-78
2021/08/30 06:16:21;;;;;;;39.30;13.45;;;;;;;19.47;65.04;99218.75;4944948;28;20051;-77
2021/08/30 06:20:18;;;;;;;39.92;14.00;;;;;;;19.27;64.93;99174.22;4929822;28;20047;-78
2021/08/30 06:23:47;;;;;;;;;;;;;;;;;;;;;
2021/08/30 06:27:09;;;;;;;32.70;13.02;;;;;;;19.35;64.95;99178.81;4927640;28;20138;-77
2021/08/30 06:30:22;;;;;;;28.17;12.90;;;;;;;19.30;65.14;99158.88;4938593;28;20050;-78
2021/08/30 06:33:58;;;;;;;31.58;13.65;;;;;;;19.58;65.36;99194.13;4933756;28;20184;-78
2021/08/30 06:37:27;;;;;;;29.40;13.15;;;;;;;19.39;64.97;99154.00;4944017;28;20058;-78
2021/08/30 06:40:25;;;;;;;30.40;13.13;;;;;;;19.65;65.25;99175.75;4936523;28;20125;-78
2021/08/30 06:43:48;;;;;;;38.97;12.80;;;;;;;19.95;65.18;99211.50;4898577;29;20043;-78
2021/08/30 06:47:35;;;;;;;;;;;;;;;;;;;;;
2021/08/30 06:55:05;;;;;;;29.52;13.30;;;;;;;19.68;64.92;99154.84;4676269;29;21714;-77
2021/08/30 06:58:30;;;;;;;28.88;13.40;;;;;;;19.62;64.93;99145.16;4676595;29;20092;-76
2021/08/30 07:06:10;;;;;;;32.45;14.57;;;;;;;20.17;64.83;99219.63;4570074;29;20071;-75
2021/08/30 07:09:58;;;;;;;;;;;;;;;;;;;;;
2021/08/30 07:13:31;;;;;;;28.55;13.00;;;;;;;20.06;64.65;99175.75;4768087;28;21363;-75
2021/08/30 07:20:20;;;;;;;26.80;13.68;;;;;;;20.37;64.23;99207.50;4683950;28;21168;-74
2021/08/30 07:22:47;;;;;;;27.35;14.27;;;;;;;20.38;64.30;99206.34;4707122;28;21257;-75
2021/08/30 07:25:14;;;;;;;31.43;13.40;;;;;;;20.50;64.73;99216.56;4713572;28;20108;-74
2021/08/30 07:27:40;;;;;;;24.55;13.07;;;;;;;;;;4712599;28;21110;-74
2021/08/30 07:30:09;;;;;;;25.20;12.63;;;;;;;20.54;64.52;99209.13;4707010;28;20051;-75
2021/08/30 07:32:36;;;;;;;27.50;12.35;;;;;;;20.54;64.42;99203.56;4737530;28;20051;-75
2021/08/30 07:35:04;;;;;;;24.67;12.93;;;;;;;20.61;64.28;99193.84;4735941;28;20050;-75
2021/08/30 07:37:31;;;;;;;26.77;13.07;;;;;;;20.50;64.33;99157.44;4733314;28;20081;-75
2021/08/30 07:39:57;;;;;;;26.38;13.73;;;;;;;20.60;64.17;99167.19;4747389;28;21204;-74
2021/08/30 07:42:24;;;;;;;27.98;13.40;;;;;;;20.51;63.87;99147.94;4755719;28;20552;-75
2021/08/30 07:44:50;;;;;;;28.13;13.25;;;;;;;20.66;64.12;99177.69;4731043;28;21285;-76
2021/08/30 07:47:28;;;;;;;27.55;13.88;;;;;;;20.53;63.82;99154.75;4769906;28;20050;-76
2021/08/30 07:50:07;;;;;;;24.02;13.82;;;;;;;20.49;63.84;99142.75;4856089;28;20630;-76
2021/08/30 07:53:14;;;;;;;32.10;14.52;;;;;;;20.70;63.61;99163.91;4895609;28;20129;-76
2021/08/30 07:55:57;;;;;;;25.73;14.68;;;;;;;20.80;63.76;99179.19;4950705;28;20058;-78
2021/08/30 07:58:29;;;;;;;31.00;15.30;;;;;;;20.66;63.72;99161.03;4962513;28;20054;-77
2021/08/30 08:00:56;;;;;;;28.50;14.70;;;;;;;20.82;63.66;99176.91;4982740;28;20058;-77
2021/08/30 08:03:24;;;;;;;26.60;13.83;;;;;;;20.88;63.85;99178.25;4978805;28;20382;-77
2021/08/30 08:05:50;;;;;;;28.05;13.80;;;;;;;21.20;63.85;99210.75;4964680;28;20081;-76
2021/08/30 08:08:17;;;;;;;35.33;15.13;;;;;;;21.14;63.57;99185.19;4985077;28;20049;-79
2021/08/30 08:10:43;;;;;;;40.63;15.40;;;;;;;21.21;63.43;99177.03;4982696;28;20053;-77
2021/08/30 08:13:10;;;;;;;36.35;15.27;;;;;;;21.07;63.31;99155.28;4980492;28;20196;-78
2021/08/30 08:15:37;;;;;;;36.95;15.00;;;;;;;21.34;63.33;99185.25;4980579;28;20047;-76
2021/08/30 08:18:09;;;;;;;32.80;14.88;;;;;;;21.56;62.88;99196.84;4980794;28;20099;-77
2021/08/30 08:20:40;;;;;;;31.65;14.27;;;;;;;21.57;62.63;99188.16;4970034;28;20056;-77
2021/08/30 08:23:08;;;;;;;33.47;14.15;;;;;;;21.53;62.38;99156.66;4964121;28;20407;-80
2021/08/30 08:25:36;;;;;;;33.00;13.87;;;;;;;21.66;62.56;99160.16;4981023;28;20101;-76
2021/08/30 08:28:06;;;;;;;39.15;13.52;;;;;;;21.74;62.07;99144.41;4980821;28;20137;-77
2021/08/30 08:30:33;;;;;;;33.10;14.15;;;;;;;21.92;62.06;99158.66;4964233;28;20050;-77
2021/08/30 08:33:00;;;;;;;38.28;13.75;;;;;;;21.96;61.60;99143.66;4963979;28;20078;-77
2021/08/30 08:39:11;;;;;;;31.67;13.50;;;;;;;22.61;60.94;99202.53;4972355;28;20087;-80
2021/08/30 08:41:38;;;;;;;32.67;12.48;;;;;;;22.64;60.68;99176.72;4980258;28;20495;-79
2021/08/30 08:44:07;;;;;;;29.90;13.43;;;;;;;22.83;59.98;99183.38;4973481;28;20042;-77
2021/08/30 08:47:18;;;;;;;25.75;12.00;;;;;;;22.68;59.65;99146.13;4972454;28;20601;-79
2021/08/30 08:49:50;;;;;;;25.23;11.77;;;;;;;22.79;59.75;99149.91;4999072;28;20081;-79
2021/08/30 08:52:26;;;;;;;32.70;13.07;;;;;;;22.80;59.21;99137.59;5000576;28;20039;-81
2021/08/30 08:55:00;;;;;;;31.10;13.43;;;;;;;23.17;58.96;99188.28;4997411;28;20046;-79
2021/08/30 08:57:27;;;;;;;27.13;12.65;;;;;;;23.04;58.58;99140.31;4996279;28;20073;-77
2021/08/30 09:10:48;;;;;;;;;;;;;;;;;;;;;
2021/08/30 09:35:27;;;;;;;22.08;10.00;;;;;;;23.22;55.52;99102.34;5397419;23;19928;-83
2021/08/30 09:37:59;;;;;;;20.85;10.43;;;;;;;23.32;55.73;99120.44;4923643;28;20144;-72
2021/08/30 09:40:29;;;;;;;20.00;10.25;;;;;;;23.24;56.37;99115.91;4986464;28;20073;-72
2021/08/30 09:42:57;;;;;;;18.75;10.13;;;;;;;23.33;56.22;99129.59;4985109;28;20057;-71
2021/08/30 09:45:27;;;;;;;21.80;10.13;;;;;;;23.26;56.37;99119.16;4951816;28;20045;-72
2021/08/30 09:47:57;;;;;;;20.70;10.40;;;;;;;23.21;56.66;99119.44;4952164;28;20050;-72
2021/08/30 09:50:53;;;;;;;19.75;10.25;;;;;;;23.14;57.09;99099.84;4968567;28;20533;-74
2021/08/30 09:53:41;;;;;;;19.23;9.55;;;;;;;23.38;56.73;99120.91;4955996;28;20048;-72
2021/08/30 09:56:12;;;;;;;;;;;;;;;23.67;56.65;99162.28;4965555;28;20054;-72
2021/08/30 09:58:41;;;;;;;23.40;9.93;;;;;;;23.53;56.52;99138.63;4968279;28;20420;-73
2021/08/30 10:01:16;;;;;;;22.33;9.85;;;;;;;23.25;56.83;99091.63;4968541;28;20119;-72
2021/08/30 10:03:44;;;;;;;19.30;9.85;;;;;;;23.45;56.92;99129.34;4999224;28;20045;-73
2021/08/30 10:06:12;;;;;;;23.20;9.65;;;;;;;23.55;56.87;99141.81;5001280;28;20046;-71
2021/08/30 10:08:47;;;;;;;20.92;10.40;;;;;;;23.44;56.89;99129.75;4967863;28;20104;-72
2021/08/30 10:11:14;;;;;;;22.30;9.68;;;;;;;23.58;57.02;99129.13;4982686;28;20503;-72
2021/08/30 10:13:42;;;;;;;26.60;10.80;;;;;;;23.65;57.17;99143.94;4999160;28;20050;-73
2021/08/30 10:16:08;;;;;;;25.30;10.18;;;;;;;23.65;56.97;99141.16;5000632;28;20051;-72
2021/08/30 10:18:35;;;;;;;20.00;10.20;;;;;;;23.76;57.23;99157.25;4999817;28;20490;-72
2021/08/30 10:21:15;;;;;;;18.23;9.70;;;;;;;23.69;57.15;99137.59;4951981;28;20042;-76
2021/08/30 10:23:42;;;;;;;26.80;10.13;;;;;;;23.87;56.92;99155.34;5000397;28;20049;-74
2021/08/30 10:26:11;;;;;;;22.50;10.30;;;;;;;23.71;56.10;99127.69;4999377;28;20524;-73
2021/08/30 10:28:41;;;;;;;22.95;9.55;;;;;;;23.89;55.94;99164.19;4958483;28;20049;-73
2021/08/30 10:31:16;;;;;;;22.40;10.05;;;;;;;23.73;55.68;99135.69;4968305;28;20124;-71
2021/08/30 10:33:50;;;;;;;22.05;9.77;;;;;;;23.92;55.81;99162.59;4966386;28;20057;-71
2021/08/30 10:36:25;;;;;;;18.63;9.13;;;;;;;23.79;55.42;99131.34;4983560;28;20047;-70
2021/08/30 10:39:03;;;;;;;23.35;9.27;;;;;;;23.90;55.32;99132.28;4985282;28;20625;-71
2021/08/30 10:41:36;;;;;;;18.55;8.60;;;;;;;24.12;55.36;99154.88;5000364;28;20498;-71
2021/08/30 10:44:19;;;;;;;20.02;8.90;;;;;;;24.14;55.49;99154.50;4999630;28;20061;-68
2021/08/30 10:46:50;;;;;;;27.25;10.15;;;;;;;24.24;54.94;99162.16;5000776;28;20427;-69
2021/08/30 10:49:21;;;;;;;24.33;10.43;;;;;;;24.18;54.88;99164.50;4998096;28;20057;-70
2021/08/30 10:52:02;;;;;;;28.25;9.88;;;;;;;23.88;55.15;99122.69;4998732;28;20081;-70
2021/08/30 10:54:28;;;;;;;28.17;9.77;;;;;;;23.84;53.18;99105.88;4966842;28;20181;-69
2021/08/30 10:56:57;;;;;;;25.67;8.98;;;;;;;24.12;52.11;99146.50;5000024;28;20058;-69
2021/08/30 10:59:25;;;;;;;21.30;8.30;;;;;;;24.23;51.11;99154.97;4981626;28;20057;-70
2021/08/30 11:01:54;;;;;;;18.65;8.02;;;;;;;24.29;49.83;99158.22;4979675;28;20062;-68
2021/08/30 11:04:30;;;;;;;20.95;8.52;;;;;;;24.28;50.49;99148.25;4999171;28;20053;-71
2021/08/30 11:06:58;;;;;;;21.73;8.40;;;;;;;24.30;49.59;99152.28;4998454;28;20065;-68
2021/08/30 11:09:25;;;;;;;21.13;7.88;;;;;;;24.40;48.94;99158.31;4982939;28;20521;-71
2021/08/30 11:11:53;;;;;;;15.35;7.60;;;;;;;24.60;48.92;99158.91;5000598;28;20058;-72
2021/08/30 11:14:29;;;;;;;22.48;7.60;;;;;;;24.77;48.33;99151.91;4971282;28;20498;-69
2021/08/30 11:16:56;;;;;;;16.13;7.77;;;;;;;25.01;47.94;99147.69;4965632;28;20046;-71
2021/08/30 11:19:24;;;;;;;33.30;7.93;;;;;;;25.33;47.57;99160.25;4984213;28;20050;-69
2021/08/30 11:21:55;;;;;;;16.88;8.50;;;;;;;25.58;47.40;99156.81;4964894;28;20061;-68
2021/08/30 11:24:32;;;;;;;17.55;7.60;;;;;;;25.71;47.27;99149.69;4981654;28;20058;-69
2021/08/30 11:27:05;;;;;;;19.08;7.43;;;;;;;25.77;47.54;99153.69;4999106;28;20388;-69
2021/08/30 11:29:33;;;;;;;19.58;7.82;;;;;;;25.98;46.57;99143.75;5000541;28;20053;-69
2021/08/30 11:32:01;;;;;;;20.60;7.40;;;;;;;25.99;45.92;99141.75;4950274;28;20136;-68
2021/08/30 11:34:30;;;;;;;25.58;9.32;;;;;;;26.13;45.66;99150.19;4966192;28;20391;-68
2021/08/30 11:36:59;;;;;;;22.60;8.82;;;;;;;26.31;45.00;99127.84;4982200;28;20212;-71
2021/08/30 11:39:31;;;;;;;23.13;8.43;;;;;;;26.69;44.44;99138.66;4978132;28;20054;-69
2021/08/30 11:41:59;;;;;;;28.80;8.25;;;;;;;26.78;44.22;99113.03;4966469;28;20045;-70
2021/08/30 11:44:29;;;;;;;23.77;8.60;;;;;;;27.29;43.45;99138.97;4995711;28;20391;-69
2021/08/30 11:46:58;;;;;;;30.20;8.25;;;;;;;27.49;43.11;99132.13;4979924;28;20426;-70
2021/08/30 11:49:28;;;;;;;27.73;9.07;;;;;;;27.49;42.84;99120.88;4996635;28;20153;-70
2021/08/30 11:51:59;;;;;;;25.17;8.38;;;;;;;27.48;42.60;99128.53;4968545;28;20054;-73
2021/08/30 11:54:28;;;;;;;27.75;7.95;;;;;;;27.19;43.19;99128.63;4983542;28;20065;-68
2021/08/30 11:56:58;;;;;;;21.85;8.02;;;;;;;26.97;43.35;99125.84;4982990;28;20054;-68
2021/08/30 11:59:39;;;;;;;24.50;8.15;;;;;;;26.90;43.53;99128.66;4970820;28;20050;-69
2021/08/30 12:02:08;;;;;;;17.58;7.82;;;;;;;26.86;43.31;99113.84;4984253;28;20153;-69
2021/08/30 12:04:37;;;;;;;23.40;8.55;;;;;;;27.06;43.25;99097.38;4996472;28;20050;-69
2021/08/30 12:07:05;;;;;;;17.42;7.20;;;;;;;27.60;42.50;99104.84;4998205;28;20049;-68
2021/08/30 12:09:44;;;;;;;25.23;8.27;;;;;;;27.98;41.52;99096.59;4966671;28;20502;-70
2021/08/30 12:12:17;;;;;;;18.10;8.10;;;;;;;28.46;41.13;99113.94;5000714;28;20042;-70
2021/08/30 12:15:05;;;;;;;29.13;9.07;;;;;;;28.71;40.07;99110.13;4999036;28;20426;-68
2021/08/30 12:17:57;;;;;;;15.48;8.48;;;;;;;28.62;39.90;99104.97;4983250;28;20065;-68
2021/08/30 12:20:31;;;;;;;20.27;8.02;;;;;;;28.75;39.93;99076.34;4966695;28;20125;-67
2021/08/30 12:23:00;;;;;;;16.73;7.22;;;;;;;28.94;39.50;99089.03;4983445;28;20033;-68
2021/08/30 12:25:29;;;;;;;15.90;7.35;;;;;;;29.10;38.84;99082.84;4952555;28;20054;-69
2021/08/30 12:27:57;;;;;;;22.00;7.60;;;;;;;29.19;39.07;99077.53;5006794;28;20038;-71
2021/08/30 12:30:25;;;;;;;18.08;7.88;;;;;;;29.31;39.54;99073.34;4970569;28;20506;-69
2021/08/30 12:33:02;;;;;;;17.98;8.15;;;;;;;29.44;38.57;99096.13;4969989;28;20050;-71
2021/08/30 12:35:30;;;;;;;24.88;8.10;;;;;;;29.69;38.75;99109.88;4969690;28;20045;-70
2021/08/30 12:37:59;;;;;;;17.50;7.80;;;;;;;29.62;38.61;99098.72;5001932;28;20054;-68
2021/08/30 12:40:29;;;;;;;19.35;7.82;;;;;;;29.71;38.28;99101.03;5003129;28;20590;-70
2021/08/30 12:42:59;;;;;;;16.67;7.22;;;;;;;29.91;38.38;99103.16;4986273;28;20522;-69
2021/08/30 12:45:26;;;;;;;17.25;7.93;;;;;;;29.84;38.23;99109.69;4969827;28;20041;-69
2021/08/30 12:48:00;;;;;;;17.95;6.93;;;;;;;29.88;37.98;99075.84;4970300;28;20052;-68
2021/08/30 12:50:30;;;;;;;20.33;8.02;;;;;;;29.95;38.12;99075.72;5002994;28;20084;-69
2021/08/30 12:52:58;;;;;;;18.90;6.95;;;;;;;30.24;37.59;99081.75;5002155;28;20135;-68
2021/08/30 12:55:26;;;;;;;17.95;7.75;;;;;;;30.41;37.85;99068.56;4985336;28;20072;-67
2021/08/30 12:58:01;;;;;;;24.30;7.43;;;;;;;30.76;37.66;99076.88;4970047;28;20046;-68
2021/08/30 13:00:28;;;;;;;19.50;8.15;;;;;;;30.88;37.25;99075.44;5002487;28;20109;-69
2021/08/30 13:02:57;;;;;;;24.17;8.10;;;;;;;30.92;37.37;99075.38;4968856;28;20145;-70
2021/08/30 13:05:28;;;;;;;26.00;8.00;;;;;;;31.03;35.69;99067.50;4983782;28;20050;-69
2021/08/30 13:08:04;;;;;;;17.83;8.23;;;;;;;31.03;35.55;99032.84;5000283;28;20057;-68
2021/08/30 13:10:34;;;;;;;21.38;6.97;;;;;;;31.50;35.51;99058.09;4967754;28;20050;-69
2021/08/30 13:13:07;;;;;;;27.83;7.78;;;;;;;31.76;35.69;99049.84;4987015;28;20100;-70